Time,TemperatureF,DewpointF,PressureIn,WindDirection,WindDirectionDegrees,WindSpeedMPH,WindSpeedGustMPH,Humidity,HourlyPrecipIn,Conditions,Clouds,dailyrainin,SoftwareType,DateUTC
2013-01-26 00:10:00,23.2,22.7,29.98,West,270,0.0,-999.0,98,-99.99,,,0.00,Acu-Link.com,2013-01-26 06:10:00,
2013-01-26 00:25:00,23.0,22.5,29.99,West,270,0.0,-999.0,98,-99.99,,,0.00,Acu-Link.com,2013-01-26 06:25:00,
2013-01-26 00:40:00,23.0,22.5,29.99,West,270,0.0,-999.0,98,-99.99,,,0.00,Acu-Link.com,2013-01-26 06:40:00,
2013-01-26 00:55:00,22.6,22.1,29.99,West,270,0.0,-999.0,98,-99.99,,,0.00,Acu-Link.com,2013-01-26 06:55:00,
2013-01-26 01:10:00,23.9,23.4,29.99,West,270,0.0,-999.0,98,-99.99,,,0.00,Acu-Link.com,2013-01-26 07:10:00,
2013-01-26 01:25:00,23.4,22.9,29.99,West,270,0.0,-999.0,98,-99.99,,,0.00,Acu-Link.com,2013-01-26 07:25:00,
2013-01-26 01:40:00,23.7,23.2,29.99,West,270,0.0,-999.0,98,-99.99,,,0.00,Acu-Link.com,2013-01-26 07:40:00,
2013-01-26 01:56:00,25.0,24.5,29.99,West,270,0.0,-999.0,98,-99.99,,,0.00,Acu-Link.com,2013-01-26 07:56:00,
2013-01-26 02:11:00,25.5,25.0,30.00,West,270,0.0,-999.0,98,-99.99,,,0.00,Acu-Link.com,2013-01-26 08:11:00,
2013-01-26 02:26:00,26.2,25.7,29.99,West,270,0.0,-999.0,98,-99.99,,,0.00,Acu-Link.com,2013-01-26 08:26:00,
2013-01-26 02:41:00,26.8,26.3,29.99,West,270,0.0,-999.0,98,-99.99,,,0.00,Acu-Link.com,2013-01-26 08:41:00,
2013-01-26 02:56:00,27.1,26.6,30.00,West,270,0.0,-999.0,98,-99.99,,,0.00,Acu-Link.com,2013-01-26 08:56:00,
2013-01-26 03:16:00,27.1,26.6,30.00,West,270,0.0,-999.0,98,-99.99,,,0.00,Acu-Link.com,2013-01-26 09:16:00,
2013-01-26 03:32:00,27.1,26.6,30.00,West,270,0.0,-999.0,98,-99.99,,,0.00,Acu-Link.com,2013-01-26 09:32:00,
2013-01-26 03:47:00,27.1,26.6,30.01,West,270,0.0,-999.0,98,-99.99,,,0.00,Acu-Link.com,2013-01-26 09:47:00,
2013-01-26 04:02:00,27.0,26.5,30.01,West,270,0.0,-999.0,98,-99.99,,,0.00,Acu-Link.com,2013-01-26 10:02:00,
2013-01-26 04:17:00,27.0,26.5,30.01,West,270,0.0,-999.0,98,-99.99,,,0.00,Acu-Link.com,2013-01-26 10:17:00,
2013-01-26 04:32:00,26.8,26.3,29.99,West,270,0.0,-999.0,98,-99.99,,,0.00,Acu-Link.com,2013-01-26 10:32:00,
2013-01-26 04:47:00,26.6,26.1,30.00,West,270,0.0,-999.0,98,-99.99,,,0.00,Acu-Link.com,2013-01-26 10:47:00,
2013-01-26 05:02:00,26.6,26.1,30.00,West,270,0.0,-999.0,98,-99.99,,,0.00,Acu-Link.com,2013-01-26 11:02:00,
2013-01-26 05:17:00,26.6,26.1,30.01,West,270,0.0,-999.0,98,-99.99,,,0.00,Acu-Link.com,2013-01-26 11:17:00,
2013-01-26 05:33:00,26.8,26.3,30.02,West,270,0.0,-999.0,98,-99.99,,,0.00,Acu-Link.com,2013-01-26 11:33:00,
2013-01-26 05:48:00,26.6,26.1,30.02,West,270,0.0,-999.0,98,-99.99,,,0.00,Acu-Link.com,2013-01-26 11:48:00,
2013-01-26 06:03:00,26.1,25.6,30.02,West,270,0.0,-999.0,98,-99.99,,,0.00,Acu-Link.com,2013-01-26 12:03:00,
2013-01-26 06:18:00,25.7,25.2,30.03,West,270,0.0,-999.0,98,-99.99,,,0.00,Acu-Link.com,2013-01-26 12:18:00,
2013-01-26 06:33:00,25.3,24.8,30.03,West,270,0.0,-999.0,98,-99.99,,,0.00,Acu-Link.com,2013-01-26 12:33:00,
2013-01-26 06:48:00,24.8,24.3,30.04,West,270,0.0,-999.0,98,-99.99,,,0.00,Acu-Link.com,2013-01-26 12:48:00,
2013-01-26 07:03:00,24.6,24.1,30.05,West,270,0.0,-999.0,98,-99.99,,,0.00,Acu-Link.com,2013-01-26 13:03:00,
2013-01-26 07:18:00,23.7,23.2,30.05,West,270,0.0,-999.0,98,-99.99,,,0.00,Acu-Link.com,2013-01-26 13:18:00,
2013-01-26 07:33:00,24.1,23.6,30.05,West,270,0.0,-999.0,98,-99.99,,,0.00,Acu-Link.com,2013-01-26 13:33:00,
2013-01-26 07:49:00,26.4,25.9,30.05,West,270,0.0,-999.0,98,-99.99,,,0.00,Acu-Link.com,2013-01-26 13:49:00,
2013-01-26 08:04:00,28.4,27.9,30.06,West,270,0.0,-999.0,98,-99.99,,,0.00,Acu-Link.com,2013-01-26 14:04:00,
2013-01-26 08:19:00,28.0,27.5,30.06,West,270,0.0,-999.0,98,-99.99,,,0.00,Acu-Link.com,2013-01-26 14:19:00,
2013-01-26 08:34:00,30.6,26.9,30.07,West,270,0.0,-999.0,86,-99.99,,,0.00,Acu-Link.com,2013-01-26 14:34:00,
2013-01-26 08:49:00,32.0,31.5,30.06,West,270,0.0,-999.0,98,-99.99,,,0.00,Acu-Link.com,2013-01-26 14:49:00,
2013-01-26 09:04:00,34.2,33.7,30.08,West,270,0.0,-999.0,98,-99.99,,,0.00,Acu-Link.com,2013-01-26 15:04:00,
2013-01-26 09:19:00,36.0,35.5,30.07,West,270,0.0,-999.0,98,-99.99,,,0.00,Acu-Link.com,2013-01-26 15:19:00,
2013-01-26 09:34:00,36.5,36.2,30.07,NW,315,1.7,-999.0,99,-99.99,,,0.00,Acu-Link.com,2013-01-26 15:34:00,
2013-01-26 09:49:00,38.5,38.2,30.07,NNW,337,2.2,-999.0,99,-99.99,,,0.00,Acu-Link.com,2013-01-26 15:49:00,
2013-01-26 10:05:00,39.2,38.9,30.08,WNW,292,2.7,-999.0,99,-99.99,,,0.00,Acu-Link.com,2013-01-26 16:05:00,
2013-01-26 10:20:00,40.1,39.8,30.08,North,0,2.7,-999.0,99,-99.99,,,0.00,Acu-Link.com,2013-01-26 16:20:00,
2013-01-26 10:35:00,40.1,39.8,30.08,WNW,292,1.7,-999.0,99,-99.99,,,0.00,Acu-Link.com,2013-01-26 16:35:00,
2013-01-26 10:50:00,41.0,39.1,30.08,North,0,1.1,-999.0,93,-99.99,,,0.00,Acu-Link.com,2013-01-26 16:50:00,
2013-01-26 11:05:00,40.8,38.7,30.09,West,270,2.7,-999.0,92,-99.99,,,0.00,Acu-Link.com,2013-01-26 17:05:00,
2013-01-26 11:20:00,41.7,39.8,30.07,East,90,3.7,-999.0,93,-99.99,,,0.00,Acu-Link.com,2013-01-26 17:20:00,
2013-01-26 11:35:00,41.5,38.8,30.07,South,180,2.7,-999.0,90,-99.99,,,0.00,Acu-Link.com,2013-01-26 17:35:00,
2013-01-26 11:50:00,42.4,37.9,30.08,West,270,0.0,-999.0,84,-99.99,,,0.00,Acu-Link.com,2013-01-26 17:50:00,
2013-01-26 12:05:00,42.3,37.5,30.07,West,270,2.7,-999.0,83,-99.99,,,0.00,Acu-Link.com,2013-01-26 18:05:00,
2013-01-26 12:21:00,43.7,39.8,30.06,West,270,0.0,-999.0,86,-99.99,,,0.00,Acu-Link.com,2013-01-26 18:21:00,
2013-01-26 12:36:00,43.2,38.4,30.06,WNW,292,5.8,-999.0,83,-99.99,,,0.00,Acu-Link.com,2013-01-26 18:36:00,
2013-01-26 12:51:00,44.1,39.9,30.06,NNW,337,4.7,-999.0,85,-99.99,,,0.00,Acu-Link.com,2013-01-26 18:51:00,
2013-01-26 13:06:00,44.8,39.3,30.05,West,270,3.2,-999.0,81,-99.99,,,0.00,Acu-Link.com,2013-01-26 19:06:00,
2013-01-26 13:21:00,44.6,38.2,30.04,NNW,337,4.2,-999.0,78,-99.99,,,0.00,Acu-Link.com,2013-01-26 19:21:00,
2013-01-26 13:36:00,45.3,38.9,30.04,WNW,292,6.8,-999.0,78,-99.99,,,0.00,Acu-Link.com,2013-01-26 19:36:00,
2013-01-26 13:51:00,44.2,37.1,30.04,NNE,22,0.0,-999.0,76,-99.99,,,0.00,Acu-Link.com,2013-01-26 19:51:00,
2013-01-26 14:06:00,45.1,38.0,30.04,NW,315,0.0,-999.0,76,-99.99,,,0.00,Acu-Link.com,2013-01-26 20:06:00,
2013-01-26 14:21:00,44.4,37.3,30.04,NNE,22,0.0,-999.0,76,-99.99,,,0.00,Acu-Link.com,2013-01-26 20:21:00,
2013-01-26 14:37:00,45.0,38.2,30.05,WNW,292,0.0,-999.0,77,-99.99,,,0.00,Acu-Link.com,2013-01-26 20:37:00,
2013-01-26 14:52:00,44.2,38.7,30.05,WNW,292,0.0,-999.0,81,-99.99,,,0.00,Acu-Link.com,2013-01-26 20:52:00,
2013-01-26 15:07:00,44.2,37.1,30.05,North,0,0.0,-999.0,76,-99.99,,,0.00,Acu-Link.com,2013-01-26 21:07:00,
2013-01-26 15:22:00,43.9,36.8,30.05,East,90,0.0,-999.0,76,-99.99,,,0.00,Acu-Link.com,2013-01-26 21:22:00,
2013-01-26 15:37:00,44.2,37.5,30.04,ENE,67,0.0,-999.0,77,-99.99,,,0.00,Acu-Link.com,2013-01-26 21:37:00,
2013-01-26 15:52:00,44.2,37.8,30.04,NE,45,0.0,-999.0,78,-99.99,,,0.00,Acu-Link.com,2013-01-26 21:52:00,
2013-01-26 16:07:00,43.3,37.6,30.04,East,90,0.0,-999.0,80,-99.99,,,0.00,Acu-Link.com,2013-01-26 22:07:00,
2013-01-26 16:22:00,42.4,38.2,30.04,East,90,0.0,-999.0,85,-99.99,,,0.00,Acu-Link.com,2013-01-26 22:22:00,
2013-01-26 16:37:00,41.7,37.5,30.05,ENE,67,0.0,-999.0,85,-99.99,,,0.00,Acu-Link.com,2013-01-26 22:37:00,
2013-01-26 16:53:00,40.5,36.9,30.05,NE,45,0.0,-999.0,87,-99.99,,,0.00,Acu-Link.com,2013-01-26 22:53:00,
2013-01-26 17:08:00,39.4,36.4,30.05,ENE,67,0.0,-999.0,89,-99.99,,,0.00,Acu-Link.com,2013-01-26 23:08:00,
2013-01-26 17:23:00,37.8,35.4,30.06,ENE,67,0.0,-999.0,91,-99.99,,,0.00,Acu-Link.com,2013-01-26 23:23:00,
2013-01-26 17:38:00,36.9,35.1,30.06,ENE,67,0.0,-999.0,93,-99.99,,,0.00,Acu-Link.com,2013-01-26 23:38:00,
2013-01-26 17:53:00,36.0,34.4,30.07,ENE,67,0.0,-999.0,94,-99.99,,,0.00,Acu-Link.com,2013-01-26 23:53:00,
2013-01-26 18:08:00,35.4,34.1,30.07,ENE,67,0.0,-999.0,95,-99.99,,,0.00,Acu-Link.com,2013-01-27 00:08:00,
2013-01-26 18:23:00,34.9,33.9,30.07,ENE,67,0.0,-999.0,96,-99.99,,,0.00,Acu-Link.com,2013-01-27 00:23:00,
2013-01-26 18:38:00,34.0,33.5,30.08,ENE,67,0.0,-999.0,98,-99.99,,,0.00,Acu-Link.com,2013-01-27 00:38:00,
2013-01-26 18:53:00,33.3,32.8,30.08,ENE,67,0.0,-999.0,98,-99.99,,,0.00,Acu-Link.com,2013-01-27 00:53:00,
2013-01-26 19:08:00,32.4,31.9,30.08,ENE,67,0.0,-999.0,98,-99.99,,,0.00,Acu-Link.com,2013-01-27 01:08:00,
2013-01-26 19:24:00,31.6,31.4,30.09,ENE,67,0.0,-999.0,99,-99.99,,,0.00,Acu-Link.com,2013-01-27 01:24:00,
2013-01-26 19:39:00,30.9,30.7,30.09,ENE,67,0.0,-999.0,99,-99.99,,,0.00,Acu-Link.com,2013-01-27 01:39:00,
2013-01-26 19:54:00,30.6,30.4,30.09,ENE,67,0.0,-999.0,99,-99.99,,,0.00,Acu-Link.com,2013-01-27 01:54:00,
2013-01-26 20:09:00,29.7,29.5,30.08,ENE,67,0.0,-999.0,99,-99.99,,,0.00,Acu-Link.com,2013-01-27 02:09:00,
2013-01-26 20:24:00,29.3,29.1,30.08,ENE,67,0.0,-999.0,99,-99.99,,,0.00,Acu-Link.com,2013-01-27 02:24:00,
2013-01-26 20:39:00,29.1,28.9,30.08,ENE,67,0.0,-999.0,99,-99.99,,,0.00,Acu-Link.com,2013-01-27 02:39:00,
2013-01-26 20:54:00,30.2,30.0,30.09,ENE,67,0.0,-999.0,99,-99.99,,,0.00,Acu-Link.com,2013-01-27 02:54:00,
2013-01-26 21:09:00,30.4,30.2,30.09,ENE,67,0.0,-999.0,99,-99.99,,,0.00,Acu-Link.com,2013-01-27 03:09:00,
2013-01-26 21:24:00,30.9,30.7,30.08,ENE,67,0.0,-999.0,99,-99.99,,,0.00,Acu-Link.com,2013-01-27 03:24:00,
2013-01-26 21:40:00,30.9,30.7,30.08,ENE,67,0.0,-999.0,99,-99.99,,,0.00,Acu-Link.com,2013-01-27 03:40:00,
2013-01-26 21:55:00,30.9,30.7,30.09,ENE,67,0.0,-999.0,99,-99.99,,,0.00,Acu-Link.com,2013-01-27 03:55:00,
2013-01-26 22:10:00,30.9,30.7,30.10,ENE,67,0.0,-999.0,99,-99.99,,,0.00,Acu-Link.com,2013-01-27 04:10:00,
2013-01-26 22:25:00,30.2,30.0,30.10,ENE,67,0.0,-999.0,99,-99.99,,,0.00,Acu-Link.com,2013-01-27 04:25:00,
2013-01-26 22:40:00,29.1,28.9,30.09,ENE,67,0.0,-999.0,99,-99.99,,,0.00,Acu-Link.com,2013-01-27 04:40:00,
2013-01-26 22:55:00,28.9,28.7,30.09,ENE,67,0.0,-999.0,99,-99.99,,,0.00,Acu-Link.com,2013-01-27 04:55:00,
2013-01-26 23:10:00,28.4,28.2,30.08,ENE,67,0.0,-999.0,99,-99.99,,,0.00,Acu-Link.com,2013-01-27 05:10:00,
2013-01-26 23:25:00,28.8,28.6,30.08,ENE,67,0.0,-999.0,99,-99.99,,,0.00,Acu-Link.com,2013-01-27 05:25:00,
2013-01-26 23:40:00,29.8,29.6,30.08,ESE,112,0.0,-999.0,99,-99.99,,,0.00,Acu-Link.com,2013-01-27 05:40:00,
2013-01-26 23:56:00,29.5,29.3,30.08,ESE,112,0.0,-999.0,99,-99.99,,,0.00,Acu-Link.com,2013-01-27 05:56:00,